Lebo, Kansas
Current Conditions -  °F | °C
As of 1:53 PM on Sunday 25 Jan 2015 (Local Time) from KEMP Reporting Station
Overcast Overcast  
Wind Chill: 37°   Ceiling: 3000
Heat Index: 45°   Visibility: 10mi
Dew Point: 31°   Wind: 22mph
Humidity: 58%   Direction: 330°NNW
Pressure: 29.94"   Gusts: 31mph
Location:  38.42°N, 95.85°W
Report Text: KEMP 251953Z AUTO 33019G27KT 10SM OVC030 07/M01 A2994 RMK AO2 PK WND 34033/1928 SLP144 T00721006
Loading
Personal Weather Stations






























Interactive Weather Map New forecast layout! Learn more

10-Day Weather Forecast

Advertisements
Track Severe Weather on mobile